Time;durP1;ratioP1;P1;durP2;ratioP2;P2;SDS_P1;SDS_P2;PMS_P1;PMS_P2;Temp;Humidity;BMP_temperature;BMP_pressure;BME280_temperature;BME280_humidity;BME280_pressure;Samples;Min_cycle;Max_cycle;Signal;HPM_P1;HPM_P2
2022/09/26 00:01:43;;;;;;;8.30;2.45;;;;;;;12.16;100.00;100826.84;2615601;36;20526;-54
2022/09/26 00:04:18;;;;;;;5.35;2.50;;;;;;;12.19;100.00;100823.84;2616154;36;20516;-51
2022/09/26 00:06:46;;;;;;;6.28;2.70;;;;;;;12.15;100.00;100817.03;2615320;36;20110;-51
2022/09/26 00:09:16;;;;;;;4.30;2.70;;;;;;;12.32;100.00;100815.41;2615376;36;20027;-48
2022/09/26 00:11:45;;;;;;;7.00;3.20;;;;;;;12.27;100.00;100807.75;2613944;31;20299;-51
2022/09/26 00:14:17;;;;;;;3.60;2.95;;;;;;;12.13;100.00;100796.59;2614992;36;20030;-52
2022/09/26 00:16:46;;;;;;;5.13;3.38;;;;;;;12.19;100.00;100794.16;2614914;36;20030;-51
2022/09/26 00:19:17;;;;;;;5.07;2.97;;;;;;;12.20;100.00;100798.53;2614877;36;20038;-54
2022/09/26 00:21:46;;;;;;;6.70;3.05;;;;;;;12.25;100.00;100790.88;2614012;36;20023;-52
2022/09/26 00:24:14;;;;;;;4.55;3.05;;;;;;;12.32;100.00;100779.47;2615206;36;20034;-52
2022/09/26 00:26:43;;;;;;;4.50;3.03;;;;;;;12.34;100.00;100777.50;2614822;36;20038;-52
2022/09/26 00:29:13;;;;;;;6.23;2.97;;;;;;;12.39;100.00;100770.63;2613246;36;20042;-50
2022/09/26 00:31:43;;;;;;;5.47;2.78;;;;;;;12.31;100.00;100777.75;2615101;36;20351;-50
2022/09/26 00:34:13;;;;;;;8.77;2.78;;;;;;;12.43;100.00;100771.19;2614668;31;20521;-52
2022/09/26 00:36:44;;;;;;;6.97;3.03;;;;;;;12.38;100.00;100763.53;2616432;31;20539;-53
2022/09/26 00:39:15;;;;;;;5.45;3.20;;;;;;;12.36;100.00;100764.69;2615742;36;20023;-51
2022/09/26 00:41:44;;;;;;;7.15;2.85;;;;;;;12.37;100.00;100747.50;2614940;36;20035;-50
2022/09/26 00:44:41;;;;;;;5.65;3.33;;;;;;;12.38;100.00;100736.56;2613975;36;20026;-56
2022/09/26 00:47:30;;;;;;;5.55;3.55;;;;;;;12.49;100.00;100724.69;2615068;31;20026;-51
2022/09/26 00:50:03;;;;;;;4.88;2.65;;;;;;;12.42;100.00;100727.13;2614616;36;20058;-52
2022/09/26 00:52:40;;;;;;;5.45;2.72;;;;;;;12.60;100.00;100710.97;2615322;31;20022;-53
2022/09/26 00:55:13;;;;;;;10.13;4.00;;;;;;;12.53;100.00;100709.03;2614519;36;20530;-55
2022/09/26 00:57:46;;;;;;;6.82;3.13;;;;;;;12.52;100.00;100700.09;2615925;36;20427;-51
2022/09/26 01:00:16;;;;;;;6.95;3.38;;;;;;;12.59;100.00;100695.78;2613319;36;20174;-59
2022/09/26 01:02:46;;;;;;;4.07;2.80;;;;;;;12.62;100.00;100689.22;2613721;36;20118;-51
2022/09/26 01:05:17;;;;;;;5.90;3.28;;;;;;;12.63;100.00;100680.09;2614701;36;20026;-53
2022/09/26 01:07:48;;;;;;;7.38;3.75;;;;;;;12.43;100.00;100674.00;2616055;36;20034;-55
2022/09/26 01:10:17;;;;;;;8.23;3.33;;;;;;;12.55;100.00;100664.69;2614657;36;20023;-53
2022/09/26 01:12:46;;;;;;;7.65;3.42;;;;;;;12.54;100.00;100654.03;2615680;36;20043;-54
2022/09/26 01:15:15;;;;;;;6.13;3.53;;;;;;;12.46;100.00;100649.41;2615544;36;20035;-52
2022/09/26 01:17:45;;;;;;;5.10;3.47;;;;;;;12.41;100.00;100638.22;2615520;36;20492;-52
2022/09/26 01:20:25;;;;;;;5.97;3.80;;;;;;;12.56;100.00;100631.28;2614853;36;20423;-53
2022/09/26 01:23:28;;;;;;;5.65;3.17;;;;;;;12.56;100.00;100625.06;2613450;36;20041;-55
2022/09/26 01:26:29;;;;;;;7.00;3.35;;;;;;;12.59;100.00;100620.19;2615452;36;20026;-50
2022/09/26 01:29:23;;;;;;;6.80;3.63;;;;;;;12.59;100.00;100614.78;2614386;36;20062;-51
2022/09/26 01:34:54;;;;;;;6.45;3.72;;;;;;;12.61;100.00;100598.41;2615741;36;20042;-54
2022/09/26 01:37:32;;;;;;;4.93;3.38;;;;;;;12.51;100.00;100595.78;2616152;36;20043;-56
2022/09/26 01:40:09;;;;;;;4.88;3.03;;;;;;;12.54;100.00;100595.47;2614340;36;20053;-57
2022/09/26 01:42:46;;;;;;;6.53;3.17;;;;;;;12.56;100.00;100593.50;2615501;31;20057;-57
2022/09/26 01:45:18;;;;;;;4.78;2.72;;;;;;;12.49;100.00;100587.00;2614217;36;20038;-53
2022/09/26 01:47:56;;;;;;;7.40;3.10;;;;;;;12.40;100.00;100587.97;2616089;36;20129;-53
2022/09/26 01:50:35;;;;;;;7.22;3.08;;;;;;;12.35;100.00;100584.84;2615140;36;20053;-57
2022/09/26 01:53:07;;;;;;;3.80;2.72;;;;;;;12.51;100.00;100576.06;2616598;36;20152;-50
2022/09/26 01:55:40;;;;;;;6.35;2.70;;;;;;;12.50;100.00;100575.22;2616208;36;20146;-51
2022/09/26 01:58:13;;;;;;;7.05;3.30;;;;;;;12.45;100.00;100566.72;2615946;36;20459;-54
2022/09/26 02:00:46;;;;;;;5.68;3.53;;;;;;;12.43;100.00;100561.50;2614335;36;20037;-53
2022/09/26 02:03:21;;;;;;;7.78;3.25;;;;;;;12.48;100.00;100555.63;2615687;36;20535;-53
2022/09/26 02:05:54;;;;;;;6.45;2.67;;;;;;;12.55;100.00;100550.47;2616206;36;20546;-51
2022/09/26 02:08:27;;;;;;;5.20;3.00;;;;;;;12.55;100.00;100547.75;2614968;36;20031;-56
2022/09/26 02:11:01;;;;;;;4.32;2.85;;;;;;;12.62;100.00;100549.66;2615843;36;20420;-52
2022/09/26 02:13:35;;;;;;;5.25;3.13;;;;;;;12.53;100.00;100545.22;2615599;31;20034;-53
2022/09/26 02:16:09;;;;;;;5.40;3.00;;;;;;;12.42;100.00;100540.06;2614394;36;20034;-55
2022/09/26 02:18:44;;;;;;;7.53;3.20;;;;;;;12.56;100.00;100539.50;2616591;31;20022;-55
2022/09/26 02:21:17;;;;;;;6.05;3.53;;;;;;;12.55;100.00;100545.06;2615118;36;20034;-54
2022/09/26 02:23:45;;;;;;;7.28;3.40;;;;;;;12.48;100.00;100536.72;2614510;36;20038;-54
2022/09/26 02:26:14;;;;;;;8.13;3.40;;;;;;;12.46;100.00;100538.75;2615329;36;20023;-53
2022/09/26 02:28:42;;;;;;;4.63;3.33;;;;;;;12.51;100.00;100531.00;2615064;36;20308;-54
2022/09/26 02:31:13;;;;;;;4.68;3.47;;;;;;;12.37;100.00;100523.50;2615916;36;20030;-56
2022/09/26 02:33:45;;;;;;;7.07;3.85;;;;;;;12.39;100.00;100525.00;2615420;36;20034;-55
2022/09/26 02:36:14;;;;;;;7.75;3.60;;;;;;;12.48;100.00;100525.09;2616180;31;20034;-55
2022/09/26 02:38:42;;;;;;;4.78;3.70;;;;;;;12.52;100.00;100511.13;2615547;36;20045;-53
2022/09/26 02:41:19;;;;;;;6.18;4.18;;;;;;;12.50;100.00;100513.13;2615678;36;20536;-57
2022/09/26 02:44:12;;;;;;;5.95;4.00;;;;;;;12.38;100.00;100501.75;2614589;36;20030;-53
2022/09/26 02:47:15;;;;;;;5.35;3.83;;;;;;;12.38;100.00;100504.44;2615139;36;20038;-54
2022/09/26 02:50:07;;;;;;;8.70;4.13;;;;;;;12.32;100.00;100488.84;2615208;36;20041;-54
2022/09/26 02:52:44;;;;;;;8.18;3.92;;;;;;;12.33;100.00;100478.94;2615914;36;20034;-52
2022/09/26 02:55:30;;;;;;;5.60;3.90;;;;;;;12.26;100.00;100473.28;2615606;36;20023;-56
2022/09/26 02:58:14;;;;;;;14.32;4.32;;;;;;;12.37;100.00;100481.16;2614731;36;20424;-57
2022/09/26 03:00:54;;;;;;;10.70;4.45;;;;;;;12.24;100.00;100473.47;2613392;36;20034;-52
2022/09/26 03:03:27;;;;;;;8.43;4.32;;;;;;;12.14;100.00;100472.69;2615343;36;20397;-53
2022/09/26 03:06:02;;;;;;;10.77;4.15;;;;;;;12.15;100.00;100469.00;2615867;36;20030;-55
2022/09/26 03:08:35;;;;;;;6.57;4.30;;;;;;;12.19;100.00;100462.31;2615633;36;20487;-52
2022/09/26 03:11:08;;;;;;;7.07;4.43;;;;;;;12.13;100.00;100459.38;2615572;36;20034;-55
2022/09/26 03:13:40;;;;;;;9.20;4.30;;;;;;;12.17;100.00;100458.88;2615374;36;20041;-55
2022/09/26 03:16:09;;;;;;;17.02;5.70;;;;;;;12.27;100.00;100454.25;2615210;36;20034;-55
2022/09/26 03:18:44;;;;;;;7.65;5.13;;;;;;;12.15;100.00;100449.28;2616229;36;20022;-55
2022/09/26 03:21:16;;;;;;;10.45;5.40;;;;;;;11.98;100.00;100438.34;2615826;36;20027;-53
2022/09/26 03:23:44;;;;;;;9.70;5.13;;;;;;;11.94;100.00;100439.66;2615139;36;20126;-53
2022/09/26 03:26:15;;;;;;;6.85;4.38;;;;;;;12.13;100.00;100427.84;2615438;36;20026;-55
2022/09/26 03:28:43;;;;;;;9.13;4.93;;;;;;;12.06;100.00;100424.94;2616423;36;20042;-54
2022/09/26 03:31:12;;;;;;;6.93;5.07;;;;;;;11.89;100.00;100415.81;2615585;36;20042;-54
2022/09/26 03:33:40;;;;;;;6.45;4.72;;;;;;;11.90;100.00;100412.13;2615325;36;20142;-52
2022/09/26 03:36:10;;;;;;;10.35;4.68;;;;;;;11.95;100.00;100405.44;2614859;36;20022;-53
2022/09/26 03:38:41;;;;;;;6.88;4.78;;;;;;;11.78;100.00;100399.03;2615264;36;20057;-54
2022/09/26 03:41:10;;;;;;;11.73;5.10;;;;;;;11.83;100.00;100392.16;2615467;36;20057;-53
2022/09/26 03:43:42;;;;;;;8.98;4.75;;;;;;;11.99;100.00;100390.66;2615096;36;20170;-52
2022/09/26 03:46:14;;;;;;;8.07;4.45;;;;;;;11.88;100.00;100376.38;2615343;36;20476;-54
2022/09/26 03:48:43;;;;;;;9.70;4.75;;;;;;;11.81;100.00;100372.63;2615293;36;20047;-52
2022/09/26 03:51:14;;;;;;;8.15;5.15;;;;;;;11.74;100.00;100367.00;2616429;36;20439;-54
2022/09/26 03:53:49;;;;;;;8.05;4.63;;;;;;;11.91;100.00;100373.38;2615178;36;20050;-54
2022/09/26 03:56:19;;;;;;;8.45;4.57;;;;;;;11.88;100.00;100351.25;2614704;36;20563;-54
2022/09/26 03:58:48;;;;;;;7.03;4.47;;;;;;;12.00;100.00;100341.09;2615161;36;20150;-56
2022/09/26 04:01:19;;;;;;;9.85;5.00;;;;;;;11.98;100.00;100343.09;2614327;36;20035;-51
2022/09/26 04:03:48;;;;;;;7.30;4.50;;;;;;;11.91;100.00;100327.53;2615252;36;20066;-52
2022/09/26 04:06:18;;;;;;;9.43;4.50;;;;;;;11.95;100.00;100329.94;2614436;36;20030;-56
2022/09/26 04:08:51;;;;;;;11.55;5.05;;;;;;;11.78;100.00;100318.13;2615271;36;20038;-56
2022/09/26 04:11:23;;;;;;;9.05;4.78;;;;;;;11.88;100.00;100316.19;2615791;36;20061;-55
2022/09/26 04:13:52;;;;;;;9.52;4.20;;;;;;;11.80;100.00;100316.16;2613807;36;20030;-54
2022/09/26 04:16:22;;;;;;;6.38;4.03;;;;;;;11.93;100.00;100303.13;2614400;36;20041;-53
2022/09/26 04:18:50;;;;;;;8.15;4.45;;;;;;;11.95;100.00;100292.19;2614984;36;20061;-52
2022/09/26 04:21:19;;;;;;;6.60;4.00;;;;;;;11.97;100.00;100290.16;2615660;36;20046;-56
2022/09/26 04:23:50;;;;;;;6.33;3.80;;;;;;;11.98;100.00;100281.06;2613680;31;20062;-54
2022/09/26 04:26:20;;;;;;;9.48;4.80;;;;;;;11.86;100.00;100277.75;2615289;36;20066;-55
2022/09/26 04:28:51;;;;;;;7.45;4.07;;;;;;;11.82;100.00;100269.16;2614023;36;20030;-54
2022/09/26 04:31:20;;;;;;;7.80;4.38;;;;;;;11.86;100.00;100270.50;2615631;36;20030;-54
2022/09/26 04:33:49;;;;;;;7.97;3.72;;;;;;;11.96;100.00;100264.22;2614701;36;20545;-52
2022/09/26 04:36:19;;;;;;;6.90;3.65;;;;;;;11.86;100.00;100248.94;2615382;36;20134;-51
2022/09/26 04:38:50;;;;;;;6.57;3.72;;;;;;;11.90;100.00;100252.19;2614802;36;20022;-52
2022/09/26 04:41:20;;;;;;;9.95;4.13;;;;;;;11.85;100.00;100249.97;2615461;36;20030;-53
2022/09/26 04:43:49;;;;;;;7.05;3.65;;;;;;;11.84;100.00;100244.72;2615093;36;20033;-53
2022/09/26 04:46:20;;;;;;;6.63;3.55;;;;;;;12.00;100.00;100235.91;2614838;36;20031;-54
2022/09/26 04:48:48;;;;;;;7.45;3.97;;;;;;;11.91;100.00;100225.06;2614416;36;20034;-54
2022/09/26 04:51:19;;;;;;;8.75;3.67;;;;;;;11.87;100.00;100220.97;2614527;36;20034;-54
2022/09/26 04:53:50;;;;;;;5.93;3.58;;;;;;;11.85;100.00;100225.69;2614480;36;20034;-54
2022/09/26 04:56:20;;;;;;;6.55;3.72;;;;;;;11.71;100.00;100218.19;2613433;36;20046;-55
2022/09/26 04:58:48;;;;;;;6.35;3.83;;;;;;;11.83;100.00;100213.38;2615360;36;20033;-53
2022/09/26 05:01:18;;;;;;;5.20;3.50;;;;;;;11.80;100.00;100219.09;2614229;36;20536;-52
2022/09/26 05:03:47;;;;;;;7.55;3.97;;;;;;;11.97;100.00;100209.25;2614018;36;20408;-55
2022/09/26 05:06:17;;;;;;;6.60;3.10;;;;;;;11.82;100.00;100203.59;2613568;36;20022;-54
2022/09/26 05:08:47;;;;;;;4.50;3.13;;;;;;;11.78;100.00;100202.22;2612833;36;20697;-52
2022/09/26 05:11:20;;;;;;;8.93;4.18;;;;;;;11.66;100.00;100201.63;2615128;31;20419;-54
2022/09/26 05:13:50;;;;;;;10.05;3.63;;;;;;;11.55;100.00;100190.13;2613994;36;20443;-54
2022/09/26 05:16:19;;;;;;;7.38;3.75;;;;;;;11.65;100.00;100192.72;2613638;36;20061;-51
2022/09/26 05:18:51;;;;;;;5.13;3.75;;;;;;;11.57;100.00;100187.25;2614349;36;20030;-53
2022/09/26 05:21:19;;;;;;;6.85;3.70;;;;;;;11.65;100.00;100178.41;2614175;36;20034;-52
2022/09/26 05:26:39;;;;;;;5.45;3.58;;;;;;;11.55;100.00;100168.56;2612663;36;20745;-55
2022/09/26 05:29:08;;;;;;;;;;;;;;;11.56;100.00;100164.88;2611857;31;20041;-53
2022/09/26 05:31:36;;;;;;;5.60;3.77;;;;;;;11.50;100.00;100159.28;2613747;36;19950;-50
2022/09/26 05:34:06;;;;;;;7.93;3.30;;;;;;;11.51;100.00;100159.13;2614002;36;20022;-57
2022/09/26 05:36:35;;;;;;;6.07;3.53;;;;;;;11.39;100.00;100157.69;2614401;36;20067;-52
2022/09/26 05:39:04;;;;;;;5.78;3.80;;;;;;;11.55;100.00;100147.00;2614043;36;20540;-53
2022/09/26 05:41:32;;;;;;;;;;;;;;;11.47;100.00;100151.50;2615588;36;20085;-54
2022/09/26 05:44:01;;;;;;;9.10;3.40;;;;;;;11.54;100.00;100139.94;2614821;36;19938;-54
2022/09/26 05:46:30;;;;;;;4.30;3.37;;;;;;;11.38;100.00;100138.00;2613389;36;20034;-54
2022/09/26 05:48:59;;;;;;;5.47;3.30;;;;;;;11.38;100.00;100134.44;2614605;36;20291;-54
2022/09/26 05:51:28;;;;;;;7.32;3.15;;;;;;;11.26;100.00;100131.16;2615248;36;20035;-55
2022/09/26 05:53:56;;;;;;;5.68;3.22;;;;;;;11.30;100.00;100134.41;2615157;36;20038;-53
2022/09/26 05:56:24;;;;;;;5.75;3.00;;;;;;;11.35;100.00;100121.28;2614523;36;20038;-54
2022/09/26 05:58:55;;;;;;;6.22;3.00;;;;;;;11.42;100.00;100114.25;2615397;36;20026;-51
2022/09/26 06:01:24;;;;;;;7.63;3.17;;;;;;;11.43;100.00;100104.34;2615062;36;20046;-51
2022/09/26 06:03:52;;;;;;;6.28;3.00;;;;;;;11.31;100.00;100101.91;2615151;36;20069;-49
2022/09/26 06:06:21;;;;;;;5.65;2.85;;;;;;;11.40;100.00;100097.41;2615062;36;20029;-50
2022/09/26 06:08:49;;;;;;;;;;;;;;;11.42;100.00;100092.69;2612502;31;20031;-55
2022/09/26 06:11:23;;;;;;;4.43;2.72;;;;;;;11.35;100.00;100097.03;2604437;36;19942;-53
2022/09/26 06:13:51;;;;;;;5.03;2.50;;;;;;;11.43;100.00;100077.41;2613225;36;20412;-53
2022/09/26 06:16:23;;;;;;;4.93;2.97;;;;;;;11.34;100.00;100073.81;2613412;36;20023;-56
2022/09/26 06:18:54;;;;;;;6.07;2.90;;;;;;;11.34;100.00;100063.03;2615544;36;20311;-52
2022/09/26 06:21:22;;;;;;;4.78;2.70;;;;;;;11.38;100.00;100059.00;2617060;36;20166;-49
2022/09/26 06:23:51;;;;;;;4.13;2.47;;;;;;;11.30;100.00;100048.19;2617377;36;20022;-53
2022/09/26 06:26:22;;;;;;;6.90;2.90;;;;;;;11.44;100.00;100052.97;2617240;31;20046;-56
2022/09/26 06:28:56;;;;;;;4.40;2.67;;;;;;;11.47;100.00;100051.78;2615022;31;20039;-54
2022/09/26 06:31:29;;;;;;;12.75;3.28;;;;;;;11.36;100.00;100039.47;2609957;36;20491;-55
2022/09/26 06:33:57;;;;;;;7.35;2.85;;;;;;;11.33;100.00;100029.00;2617928;36;20540;-53
2022/09/26 06:36:32;;;;;;;6.20;3.17;;;;;;;11.38;100.00;100026.66;2615071;36;20034;-50
2022/09/26 06:39:02;;;;;;;5.90;2.92;;;;;;;11.58;100.00;100017.31;2615784;47;20023;-53
2022/09/26 06:41:30;;;;;;;3.80;2.80;;;;;;;11.46;100.00;100017.78;2616379;36;20026;-54
2022/09/26 06:43:58;;;;;;;4.30;3.15;;;;;;;11.43;100.00;100018.13;2615885;36;20041;-54
2022/09/26 06:46:30;;;;;;;10.77;3.20;;;;;;;11.41;100.00;100004.81;2613487;36;20035;-56
2022/09/26 06:48:58;;;;;;;5.68;2.80;;;;;;;11.47;100.00;99996.06;2615198;36;20073;-58
2022/09/26 06:51:27;;;;;;;5.97;3.10;;;;;;;11.49;100.00;99996.75;2615761;36;20034;-52
2022/09/26 06:53:55;;;;;;;10.02;3.20;;;;;;;11.53;100.00;99978.41;2614837;36;20126;-55
2022/09/26 06:56:23;;;;;;;5.78;2.80;;;;;;;11.52;100.00;99969.47;2614087;31;20042;-52
2022/09/26 06:58:52;;;;;;;4.00;2.72;;;;;;;11.56;100.00;100002.31;2614469;36;20030;-52
2022/09/26 07:01:20;;;;;;;4.05;2.70;;;;;;;11.62;100.00;99977.41;2615332;36;20034;-53
2022/09/26 07:03:51;;;;;;;6.13;3.10;;;;;;;11.51;100.00;99981.28;2616467;36;20031;-52
2022/09/26 07:06:23;;;;;;;5.80;2.90;;;;;;;11.64;100.00;99977.25;2613432;31;20030;-54
2022/09/26 07:08:52;;;;;;;7.72;3.13;;;;;;;11.79;100.00;99980.97;2614367;36;20122;-53
2022/09/26 07:11:21;;;;;;;;;;;;;;;11.76;100.00;99970.53;2616426;36;20161;-49
2022/09/26 07:13:49;;;;;;;7.07;3.53;;;;;;;11.82;100.00;99969.88;2613098;36;19957;-54
2022/09/26 07:16:18;;;;;;;5.57;2.65;;;;;;;12.03;100.00;99961.34;2614094;36;20065;-53
2022/09/26 07:18:46;;;;;;;4.53;2.57;;;;;;;12.12;100.00;99953.22;2616406;31;20452;-52
2022/09/26 07:21:17;;;;;;;8.10;2.97;;;;;;;12.12;100.00;99948.69;2614740;36;20057;-55
2022/09/26 07:23:45;;;;;;;6.05;2.70;;;;;;;12.18;100.00;99945.31;2614411;36;20031;-55
2022/09/26 07:26:14;;;;;;;4.40;2.08;;;;;;;12.31;100.00;99941.25;2614873;36;20034;-56
2022/09/26 07:28:43;;;;;;;3.78;2.65;;;;;;;12.29;100.00;99941.41;2614631;36;20041;-56
2022/09/26 07:31:11;;;;;;;;;;;;;;;12.40;100.00;99951.03;2608564;36;20046;-56
2022/09/26 07:33:40;;;;;;;3.25;2.40;;;;;;;12.25;100.00;99950.88;2614993;31;19946;-53
2022/09/26 07:36:09;;;;;;;4.03;2.25;;;;;;;12.32;100.00;99943.78;2616024;31;20022;-53
2022/09/26 07:38:40;;;;;;;5.35;2.47;;;;;;;12.42;100.00;99949.00;2608656;36;20030;-56
2022/09/26 07:41:10;;;;;;;3.80;2.40;;;;;;;12.33;100.00;99942.78;2614719;31;20065;-53
2022/09/26 07:43:38;;;;;;;5.15;2.40;;;;;;;12.49;100.00;99939.22;2614395;36;20038;-57
2022/09/26 07:51:31;;;;;;;5.32;2.33;;;;;;;12.22;100.00;99926.91;2615680;36;20527;-55
2022/09/26 07:54:02;;;;;;;4.55;2.50;;;;;;;12.28;100.00;99934.34;2615320;36;20041;-57
2022/09/26 07:56:33;;;;;;;5.07;1.98;;;;;;;12.44;100.00;99930.81;2614987;36;20045;-58
2022/09/26 07:59:04;;;;;;;5.43;2.65;;;;;;;12.27;100.00;99929.97;2615216;36;20023;-58
2022/09/26 08:01:34;;;;;;;4.90;2.50;;;;;;;12.24;100.00;99914.94;2615226;36;20030;-58
2022/09/26 08:04:05;;;;;;;4.10;2.70;;;;;;;12.33;100.00;99913.09;2616315;36;20034;-58
2022/09/26 08:06:35;;;;;;;6.60;2.97;;;;;;;12.38;100.00;99910.75;2616252;36;20038;-58
2022/09/26 08:09:06;;;;;;;5.25;2.65;;;;;;;12.45;100.00;99910.88;2616070;36;20047;-56
2022/09/26 08:11:36;;;;;;;7.93;2.60;;;;;;;12.38;100.00;99904.47;2616838;36;20427;-57
2022/09/26 08:14:05;;;;;;;3.85;2.22;;;;;;;12.45;100.00;99900.09;2615572;36;20030;-56
2022/09/26 08:16:35;;;;;;;3.97;2.53;;;;;;;12.57;100.00;99898.72;2615240;36;20038;-57
2022/09/26 08:19:03;;;;;;;5.10;2.35;;;;;;;12.46;100.00;99893.69;2616007;36;20038;-55
2022/09/26 08:21:31;;;;;;;9.88;3.10;;;;;;;12.40;100.00;99897.91;2615881;36;20038;-57
2022/09/26 08:24:00;;;;;;;6.38;3.00;;;;;;;12.41;100.00;99896.03;2615627;31;20042;-58
2022/09/26 08:26:31;;;;;;;4.82;2.90;;;;;;;12.55;100.00;99892.63;2614948;36;20039;-56
2022/09/26 08:29:00;;;;;;;7.13;3.17;;;;;;;12.82;100.00;99885.13;2615396;36;20115;-58
2022/09/26 08:31:29;;;;;;;5.90;2.55;;;;;;;12.80;100.00;99888.00;2615410;36;20034;-58
2022/09/26 08:33:58;;;;;;;5.55;3.00;;;;;;;12.89;100.00;99875.31;2616259;36;20038;-58
2022/09/26 08:36:26;;;;;;;7.10;2.95;;;;;;;12.74;100.00;99869.78;2616097;31;20027;-55
2022/09/26 08:38:55;;;;;;;7.88;2.72;;;;;;;12.88;100.00;99868.25;2609587;36;20280;-58
2022/09/26 08:41:41;;;;;;;4.63;2.78;;;;;;;12.82;100.00;99870.78;2615318;36;20666;-57
2022/09/26 08:44:28;;;;;;;6.68;2.53;;;;;;;12.90;100.00;99863.50;2614093;36;20121;-57
2022/09/26 08:47:01;;;;;;;8.45;3.17;;;;;;;12.85;100.00;99863.16;2614155;36;20041;-59
2022/09/26 08:49:59;;;;;;;8.10;3.03;;;;;;;13.06;100.00;99859.88;2607056;36;20451;-57
2022/09/26 08:52:32;;;;;;;7.68;2.47;;;;;;;13.03;100.00;99854.81;2615346;31;20574;-58
2022/09/26 08:55:06;;;;;;;3.63;2.38;;;;;;;13.25;100.00;99847.78;2615680;31;20431;-57
2022/09/26 08:57:41;;;;;;;4.25;2.60;;;;;;;13.20;100.00;99843.94;2615977;36;20424;-58
2022/09/26 09:00:20;;;;;;;5.28;2.60;;;;;;;13.16;100.00;99843.41;2615316;36;20035;-58
2022/09/26 09:03:05;;;;;;;4.90;2.83;;;;;;;13.01;100.00;99845.22;2616419;36;20053;-58
2022/09/26 09:05:38;;;;;;;7.63;3.05;;;;;;;12.83;100.00;99849.00;2615446;31;20047;-58
2022/09/26 09:08:13;;;;;;;6.88;2.88;;;;;;;13.09;100.00;99847.88;2615806;36;20038;-57
2022/09/26 09:10:48;;;;;;;5.20;3.00;;;;;;;12.77;100.00;99844.31;2615637;36;20038;-57
2022/09/26 09:13:33;;;;;;;6.07;3.00;;;;;;;12.72;100.00;99846.69;2615751;36;20053;-59
2022/09/26 09:16:15;;;;;;;6.28;2.88;;;;;;;12.88;100.00;99843.94;2615193;36;20150;-57
2022/09/26 09:18:52;;;;;;;6.60;3.20;;;;;;;12.65;100.00;99846.56;2616105;36;20555;-59
2022/09/26 09:21:32;;;;;;;9.02;3.50;;;;;;;12.43;100.00;99834.66;2615878;36;20019;-58
2022/09/26 09:24:18;;;;;;;9.57;3.60;;;;;;;12.51;100.00;99831.09;2615877;36;20034;-58
2022/09/26 09:26:56;;;;;;;7.03;3.55;;;;;;;12.69;100.00;99831.69;2613903;31;20078;-58
2022/09/26 09:29:48;;;;;;;9.47;3.90;;;;;;;12.75;100.00;99819.31;2614280;36;20034;-58
2022/09/26 09:32:20;;;;;;;8.70;3.95;;;;;;;12.78;100.00;99825.22;2615531;36;20038;-58
2022/09/26 09:34:51;;;;;;;6.05;3.80;;;;;;;12.73;100.00;99813.28;2615757;36;20079;-57
2022/09/26 09:37:25;;;;;;;5.82;3.65;;;;;;;12.78;100.00;99811.72;2612170;36;20606;-58
2022/09/26 09:39:55;;;;;;;8.77;4.22;;;;;;;12.84;100.00;99810.19;2614698;36;20033;-59
2022/09/26 09:42:29;;;;;;;5.65;3.83;;;;;;;12.84;100.00;99804.78;2615689;31;20034;-59
2022/09/26 09:45:07;;;;;;;9.52;4.13;;;;;;;12.69;100.00;99793.03;2616252;36;20034;-54
2022/09/26 09:47:39;;;;;;;8.05;3.90;;;;;;;12.96;100.00;99799.81;2611874;36;20065;-58
2022/09/26 09:50:15;;;;;;;5.57;4.22;;;;;;;13.15;100.00;99793.13;2615507;36;20429;-58
2022/09/26 09:52:58;;;;;;;9.30;3.88;;;;;;;13.05;100.00;99787.13;2615942;36;20046;-57
2022/09/26 09:55:40;;;;;;;7.70;3.90;;;;;;;13.10;100.00;99784.72;2614417;36;20030;-57
2022/09/26 09:58:21;;;;;;;8.05;3.78;;;;;;;13.04;100.00;99783.56;2609571;36;20022;-57
2022/09/26 10:01:03;;;;;;;4.90;3.70;;;;;;;13.23;100.00;99776.84;2614211;36;20568;-59
2022/09/26 10:03:40;;;;;;;6.20;4.03;;;;;;;13.29;100.00;99781.56;2615292;31;20037;-56
2022/09/26 10:06:11;;;;;;;6.07;4.53;;;;;;;13.05;100.00;99769.03;2616106;36;20041;-57
2022/09/26 10:08:41;;;;;;;8.70;4.43;;;;;;;13.14;100.00;99777.94;2615871;36;20031;-58
2022/09/26 10:11:22;;;;;;;8.57;4.88;;;;;;;12.74;100.00;99774.47;2616300;36;20034;-56
2022/09/26 10:13:54;;;;;;;10.88;4.40;;;;;;;12.76;100.00;99769.72;2615623;36;20527;-58
2022/09/26 10:16:25;;;;;;;11.95;4.65;;;;;;;13.13;100.00;99766.28;2615760;36;20046;-56
2022/09/26 10:18:59;;;;;;;6.82;4.25;;;;;;;13.14;100.00;99765.25;2615932;36;20042;-58
2022/09/26 10:21:31;;;;;;;9.43;4.85;;;;;;;13.10;100.00;99760.38;2616439;36;20528;-57
2022/09/26 10:24:00;;;;;;;6.68;4.65;;;;;;;13.02;100.00;99760.47;2614630;36;20041;-55
2022/09/26 10:26:33;;;;;;;8.80;4.53;;;;;;;13.21;100.00;99749.19;2615381;31;20031;-58
2022/09/26 10:29:06;;;;;;;10.85;4.43;;;;;;;13.28;100.00;99750.13;2614461;36;20134;-58
2022/09/26 10:31:41;;;;;;;6.53;4.60;;;;;;;13.21;100.00;99749.19;2615055;36;20035;-58
2022/09/26 10:34:23;;;;;;;13.48;4.85;;;;;;;13.22;100.00;99755.41;2615408;36;20035;-56
2022/09/26 10:36:52;;;;;;;5.47;4.05;;;;;;;13.21;100.00;99749.19;2615718;31;20039;-58
2022/09/26 10:42:05;;;;;;;9.10;4.88;;;;;;;13.14;100.00;99742.81;2615926;36;20030;-59
2022/09/26 10:44:35;;;;;;;7.45;4.53;;;;;;;13.03;100.00;99745.91;2614759;36;20050;-56
2022/09/26 10:47:09;;;;;;;8.88;4.70;;;;;;;13.13;100.00;99741.13;2614971;36;20073;-56
2022/09/26 10:49:45;;;;;;;8.98;4.38;;;;;;;13.22;100.00;99733.78;2614981;31;20038;-57
2022/09/26 10:52:22;;;;;;;10.93;5.43;;;;;;;13.38;100.00;99735.56;2615491;31;20041;-56
2022/09/26 10:54:57;;;;;;;7.25;4.47;;;;;;;13.28;100.00;99747.44;2614106;36;20034;-57
2022/09/26 10:57:32;;;;;;;9.80;5.05;;;;;;;13.05;100.00;99735.78;2614915;36;20046;-57
2022/09/26 11:00:05;;;;;;;9.35;4.35;;;;;;;12.98;100.00;99738.34;2615030;36;20042;-55
2022/09/26 11:02:37;;;;;;;6.95;5.05;;;;;;;13.28;100.00;99723.13;2615797;36;20033;-57
2022/09/26 11:07:51;;;;;;;6.97;4.57;;;;;;;13.36;100.00;99724.94;2617415;31;20428;-55
2022/09/26 11:10:26;;;;;;;8.60;4.90;;;;;;;13.28;100.00;99731.22;2614035;36;20589;-54
2022/09/26 11:13:01;;;;;;;6.43;4.70;;;;;;;13.22;100.00;99731.94;2616293;36;20400;-54
2022/09/26 11:15:30;;;;;;;5.97;4.50;;;;;;;13.15;100.00;99731.00;2615586;36;20038;-54
2022/09/26 11:18:02;;;;;;;6.90;4.45;;;;;;;13.06;100.00;99722.09;2615959;31;20040;-52
2022/09/26 11:20:50;;;;;;;8.18;4.60;;;;;;;13.06;100.00;99719.41;2615835;36;20053;-53
2022/09/26 11:23:29;;;;;;;6.60;5.03;;;;;;;13.04;100.00;99723.31;2616311;36;20166;-56
2022/09/26 11:26:08;;;;;;;7.68;4.43;;;;;;;13.01;100.00;99712.84;2615557;36;20061;-52
2022/09/26 11:28:43;;;;;;;6.30;4.95;;;;;;;13.18;100.00;99702.78;2615424;36;20065;-52
2022/09/26 11:31:22;;;;;;;7.03;4.70;;;;;;;13.30;100.00;99698.59;2615614;36;20600;-55
2022/09/26 11:33:53;;;;;;;6.25;4.68;;;;;;;13.25;100.00;99707.28;2615052;36;20023;-52
2022/09/26 11:37:02;;;;;;;7.03;5.47;;;;;;;13.30;100.00;99696.75;2615691;36;20041;-55
2022/09/26 11:39:45;;;;;;;7.72;4.60;;;;;;;13.26;100.00;99700.81;2616348;36;20076;-55
2022/09/26 11:42:32;;;;;;;8.07;4.68;;;;;;;13.25;100.00;99696.47;2615352;36;20042;-57
2022/09/26 11:45:04;;;;;;;7.05;4.68;;;;;;;13.58;100.00;99701.56;2611878;36;20107;-55
2022/09/26 11:47:48;;;;;;;9.20;4.60;;;;;;;13.26;100.00;99700.81;2616063;36;20031;-56
2022/09/26 11:50:41;;;;;;;4.75;4.03;;;;;;;13.30;100.00;99694.03;2615726;36;20044;-54
2022/09/26 11:53:33;;;;;;;6.60;4.82;;;;;;;13.24;100.00;99700.16;2614913;36;20202;-52
2022/09/26 11:56:23;;;;;;;6.43;4.25;;;;;;;13.29;100.00;99699.63;2616081;36;20400;-53
2022/09/26 11:59:01;;;;;;;5.07;4.35;;;;;;;13.21;100.00;99699.72;2615660;36;20042;-51
2022/09/26 12:01:39;;;;;;;5.07;3.65;;;;;;;13.31;100.00;99694.91;2616829;31;20503;-55
2022/09/26 12:04:28;;;;;;;4.75;4.03;;;;;;;13.31;100.00;99692.19;2609365;31;20535;-55
2022/09/26 12:07:09;;;;;;;6.47;4.25;;;;;;;13.26;100.00;99681.91;2615596;36;20026;-55